Cornerville, Illinois
Current Conditions -  °F | °C
As of 10:15 PM on Tuesday 21 Oct 2014 (Local Time) from KHSB Reporting Station
Clear Clear  
Wind Chill: 47°   Ceiling: Unl
Heat Index: 50°   Visibility: 10mi
Dew Point: 42°   Wind: 7mph
Humidity: 74%   Direction: 30°NNE
Pressure: 30.2"   Gusts: NA
Location:  37.8301°N, 88.6284°W
Report Text: KHSB 220315Z AUTO 03006KT 10SM CLR 10/05 A3020 RMK AO2 T00980053
Loading
Personal Weather Stations






























Interactive Weather Map
Tropical Storm Tracking
New forecast layout! Learn more

10-Day Weather Forecast

Advertisements
Track Severe Weather on mobile